Time;durP1;ratioP1;P1;durP2;ratioP2;P2;SDS_P1;SDS_P2;PMS_P1;PMS_P2;Temp;Humidity;BMP_temperature;BMP_pressure;BME280_temperature;BME280_humidity;BME280_pressure;Samples;Min_cycle;Max_cycle;Signal;HPM_P1;HPM_P2
2022/03/31 00:00:07;;;;;;;14.95;5.28;;;2.00;99.90;;;;;;5013423;28;20033;-69
2022/03/31 00:02:33;;;;;;;19.08;7.70;;;2.00;99.90;;;;;;5014388;28;21109;-69
2022/03/31 00:04:59;;;;;;;11.27;4.38;;;2.00;99.90;;;;;;5014057;28;20034;-69
2022/03/31 00:07:25;;;;;;;14.18;5.32;;;2.00;99.90;;;;;;5008778;28;20034;-69
2022/03/31 00:09:50;;;;;;;16.42;7.05;;;2.00;99.90;;;;;;5013704;28;20089;-69
2022/03/31 00:12:16;;;;;;;14.95;5.53;;;1.90;99.90;;;;;;5013545;28;20041;-69
2022/03/31 00:14:42;;;;;;;11.95;5.45;;;2.00;99.90;;;;;;5013987;28;20030;-69
2022/03/31 00:17:07;;;;;;;7.65;3.22;;;2.00;99.90;;;;;;5013047;28;20037;-69
2022/03/31 00:19:33;;;;;;;14.18;5.45;;;2.00;99.90;;;;;;5013275;28;20458;-68
2022/03/31 00:32:30;;;;;;;11.50;3.67;;;1.90;99.90;;;;;;5008205;28;20057;-69
2022/03/31 00:34:55;;;;;;;10.65;4.55;;;1.90;99.90;;;;;;5009543;28;20037;-69
2022/03/31 00:37:44;;;;;;;11.23;3.70;;;1.80;99.90;;;;;;5004923;28;20038;-69
2022/03/31 00:40:12;;;;;;;10.05;4.85;;;1.90;99.90;;;;;;5007645;28;20034;-70
2022/03/31 00:42:40;;;;;;;11.60;4.63;;;1.90;99.90;;;;;;5011523;28;20508;-69
2022/03/31 00:45:18;;;;;;;7.25;3.22;;;1.90;99.90;;;;;;5011524;28;20441;-69
2022/03/31 00:47:44;;;;;;;18.15;7.25;;;1.90;99.90;;;;;;5012419;28;20047;-69
2022/03/31 00:50:13;;;;;;;11.82;4.78;;;1.90;99.90;;;;;;5013519;28;20061;-69
2022/03/31 00:52:40;;;;;;;19.60;7.55;;;2.00;99.90;;;;;;5015375;28;20065;-69
2022/03/31 00:55:08;;;;;;;16.05;5.70;;;1.90;99.90;;;;;;5013035;28;20072;-70
2022/03/31 00:57:35;;;;;;;9.45;4.47;;;2.00;99.90;;;;;;5015363;28;20030;-69
2022/03/31 01:00:03;;;;;;;24.10;10.48;;;2.00;99.90;;;;;;5001528;28;20029;-71
2022/03/31 01:02:32;;;;;;;22.42;10.15;;;2.00;99.90;;;;;;5012910;28;20094;-70
2022/03/31 01:05:00;;;;;;;9.15;3.42;;;2.00;99.90;;;;;;5012591;28;20380;-70
2022/03/31 01:07:26;;;;;;;6.00;1.92;;;1.90;99.90;;;;;;5008474;28;20028;-69
2022/03/31 01:09:54;;;;;;;4.65;2.17;;;2.00;99.90;;;;;;5000897;28;20038;-68
2022/03/31 01:12:19;;;;;;;9.85;2.17;;;2.00;99.90;;;;;;5012016;28;20084;-70
2022/03/31 01:14:45;;;;;;;5.30;2.10;;;2.00;99.90;;;;;;5018699;28;20034;-68
2022/03/31 01:17:11;;;;;;;4.95;2.20;;;2.00;99.90;;;;;;5012373;28;20026;-71
2022/03/31 01:19:37;;;;;;;5.53;2.90;;;2.00;99.90;;;;;;5012833;28;20030;-69
2022/03/31 01:22:02;;;;;;;5.78;1.92;;;2.00;99.90;;;;;;5008355;28;20105;-71
2022/03/31 01:24:28;;;;;;;5.32;2.08;;;2.00;99.90;;;;;;5012201;28;20029;-69
2022/03/31 01:26:54;;;;;;;4.70;1.80;;;2.00;99.90;;;;;;5012723;28;20050;-71
2022/03/31 01:29:21;;;;;;;5.07;2.20;;;2.00;99.90;;;;;;5012521;28;20378;-70
2022/03/31 01:31:47;;;;;;;6.15;2.70;;;2.00;99.90;;;;;;5014653;28;20073;-70
2022/03/31 01:34:13;;;;;;;6.22;2.45;;;2.10;99.90;;;;;;5012670;28;20018;-71
2022/03/31 01:36:40;;;;;;;4.60;1.92;;;2.10;99.90;;;;;;5012065;28;20417;-70
2022/03/31 01:39:05;;;;;;;5.03;2.25;;;2.10;99.90;;;;;;5012195;28;20033;-71
2022/03/31 01:41:31;;;;;;;6.45;2.05;;;2.10;99.90;;;;;;5012553;28;20026;-70
2022/03/31 01:43:57;;;;;;;9.80;1.85;;;2.10;99.90;;;;;;5012666;28;20034;-72
2022/03/31 01:46:23;;;;;;;7.20;2.13;;;2.10;99.90;;;;;;5011360;28;20470;-70
2022/03/31 01:48:51;;;;;;;8.00;2.78;;;2.10;99.90;;;;;;5011464;28;20201;-69
2022/03/31 01:51:16;;;;;;;5.28;2.13;;;2.10;99.90;;;;;;5012305;28;20022;-69
2022/03/31 01:53:42;;;;;;;7.88;2.38;;;2.20;99.90;;;;;;5012516;28;20050;-69
2022/03/31 01:56:08;;;;;;;7.30;2.47;;;2.20;99.90;;;;;;5006893;28;20257;-68
2022/03/31 01:58:34;;;;;;;6.78;1.77;;;2.30;99.90;;;;;;5000289;28;20052;-69
2022/03/31 02:00:59;;;;;;;4.20;1.90;;;2.30;99.90;;;;;;5012134;28;20042;-70
2022/03/31 02:03:25;;;;;;;12.13;2.85;;;2.30;99.90;;;;;;5025330;28;20025;-71
2022/03/31 02:05:51;;;;;;;3.90;2.25;;;2.40;99.90;;;;;;5012339;28;20497;-71
2022/03/31 02:08:20;;;;;;;3.30;1.73;;;2.40;99.90;;;;;;5011568;28;20037;-69
2022/03/31 02:10:46;;;;;;;6.05;2.10;;;2.40;99.90;;;;;;5011673;28;20025;-72
2022/03/31 02:13:13;;;;;;;3.88;1.90;;;2.40;99.90;;;;;;5011647;28;20120;-71
2022/03/31 02:15:38;;;;;;;3.67;1.85;;;2.50;99.90;;;;;;5011625;28;20425;-69
2022/03/31 02:18:04;;;;;;;5.38;2.03;;;2.60;99.90;;;;;;5011509;28;20026;-73
2022/03/31 02:20:31;;;;;;;5.18;1.80;;;2.60;99.90;;;;;;5011689;28;20481;-70
2022/03/31 02:23:00;;;;;;;7.75;2.55;;;2.60;99.90;;;;;;5011067;28;20065;-73
2022/03/31 02:25:27;;;;;;;5.35;2.28;;;2.60;99.90;;;;;;5012256;28;20049;-70
2022/03/31 02:27:53;;;;;;;3.88;2.22;;;2.70;99.90;;;;;;5010692;28;20497;-73
2022/03/31 02:30:21;;;;;;;4.15;1.77;;;2.70;99.90;;;;;;5011971;28;20509;-69
2022/03/31 02:32:47;;;;;;;7.35;2.42;;;2.80;99.90;;;;;;5011777;28;20052;-69
2022/03/31 02:35:12;;;;;;;4.53;2.17;;;2.80;99.90;;;;;;5012075;28;20030;-69
2022/03/31 02:37:38;;;;;;;6.78;2.50;;;2.80;99.90;;;;;;5011629;28;20030;-69
2022/03/31 02:40:05;;;;;;;5.68;2.40;;;2.90;99.90;;;;;;5011753;28;20038;-69
2022/03/31 02:42:31;;;;;;;8.07;2.72;;;2.80;99.90;;;;;;5007398;28;20129;-68
2022/03/31 02:44:57;;;;;;;5.95;2.40;;;2.80;99.90;;;;;;5011606;28;20100;-69
2022/03/31 02:47:23;;;;;;;10.20;3.03;;;2.90;99.90;;;;;;5011768;28;20455;-69
2022/03/31 02:49:49;;;;;;;9.88;2.42;;;2.90;99.90;;;;;;5010780;28;20494;-69
2022/03/31 02:52:15;;;;;;;8.05;2.63;;;2.90;99.90;;;;;;5015027;28;20042;-68
2022/03/31 02:57:25;;;;;;;5.03;2.42;;;3.00;99.90;;;;;;5019293;28;20552;-68
2022/03/31 02:59:50;;;;;;;6.10;3.35;;;3.00;99.90;;;;;;5027561;28;20033;-68
2022/03/31 03:02:16;;;;;;;8.95;2.85;;;3.10;99.90;;;;;;5016807;28;20105;-67
2022/03/31 03:04:41;;;;;;;7.53;2.63;;;3.10;99.90;;;;;;5015493;28;20065;-68
2022/03/31 03:07:07;;;;;;;10.45;3.55;;;3.10;99.90;;;;;;5015183;28;20033;-67
2022/03/31 03:09:33;;;;;;;10.63;2.92;;;3.10;99.90;;;;;;5014868;28;20030;-67
2022/03/31 03:11:58;;;;;;;5.60;2.40;;;3.20;99.90;;;;;;5014256;28;20038;-67
2022/03/31 03:14:24;;;;;;;4.72;2.22;;;3.20;99.90;;;;;;5014967;28;20085;-67
2022/03/31 03:16:49;;;;;;;7.55;2.85;;;3.30;99.90;;;;;;5030096;28;20032;-67
2022/03/31 03:19:15;;;;;;;8.50;2.80;;;3.30;99.90;;;;;;5015132;28;20033;-67
2022/03/31 03:21:41;;;;;;;10.25;2.80;;;3.30;99.90;;;;;;5014351;28;20106;-67
2022/03/31 03:24:07;;;;;;;2.65;1.30;;;3.30;99.90;;;;;;5015357;28;20041;-67
2022/03/31 03:26:32;;;;;;;4.38;2.22;;;3.30;99.90;;;;;;5014797;28;20078;-66
2022/03/31 03:28:58;;;;;;;4.57;1.95;;;3.30;99.90;;;;;;5014573;28;20049;-67
2022/03/31 03:31:23;;;;;;;4.47;2.15;;;3.30;99.90;;;;;;5014554;28;20022;-66
2022/03/31 03:33:49;;;;;;;4.88;2.15;;;3.30;99.90;;;;;;5014622;28;20026;-66
2022/03/31 03:36:16;;;;;;;7.60;2.55;;;3.30;99.90;;;;;;5012754;28;20375;-67
2022/03/31 03:38:42;;;;;;;5.88;2.10;;;3.30;99.90;;;;;;5014756;28;20041;-66
2022/03/31 03:41:10;;;;;;;6.97;2.00;;;3.40;99.90;;;;;;5014505;28;20038;-66
2022/03/31 03:43:37;;;;;;;5.93;2.65;;;3.40;99.90;;;;;;5013923;28;20125;-67
2022/03/31 03:46:03;;;;;;;5.60;2.00;;;3.40;99.90;;;;;;5015048;28;20026;-67
2022/03/31 03:48:28;;;;;;;6.78;2.60;;;3.40;99.90;;;;;;5014326;28;20032;-68
2022/03/31 03:50:54;;;;;;;3.40;2.17;;;3.40;99.90;;;;;;5013291;28;20026;-67
2022/03/31 03:53:20;;;;;;;5.47;2.35;;;3.40;99.90;;;;;;5014064;28;20041;-66
2022/03/31 03:55:46;;;;;;;2.78;1.52;;;3.40;99.90;;;;;;5013856;28;20484;-66
2022/03/31 03:58:11;;;;;;;4.90;2.45;;;3.40;99.90;;;;;;5013980;28;20542;-66
2022/03/31 04:00:37;;;;;;;17.38;3.15;;;3.40;99.90;;;;;;5014443;28;20410;-66
2022/03/31 04:03:03;;;;;;;13.60;5.05;;;3.40;99.90;;;;;;5027993;28;20458;-66
2022/03/31 04:05:28;;;;;;;7.78;2.58;;;3.40;99.90;;;;;;5014121;28;20421;-66
2022/03/31 04:07:54;;;;;;;10.60;5.03;;;3.40;99.90;;;;;;5012341;28;20036;-66
2022/03/31 04:10:20;;;;;;;6.15;3.10;;;3.40;99.90;;;;;;5013440;28;20030;-67
2022/03/31 04:12:45;;;;;;;6.78;3.40;;;3.40;99.90;;;;;;5013675;28;20467;-66
2022/03/31 04:15:13;;;;;;;22.80;4.18;;;3.50;99.90;;;;;;5013454;28;20076;-65
2022/03/31 04:17:39;;;;;;;6.55;2.92;;;3.50;99.90;;;;;;5013863;28;20108;-65
2022/03/31 04:20:05;;;;;;;10.35;3.85;;;3.50;99.90;;;;;;5013965;28;20220;-66
2022/03/31 04:22:33;;;;;;;12.75;3.25;;;3.50;99.90;;;;;;5013978;28;20084;-66
2022/03/31 04:25:00;;;;;;;12.70;3.35;;;3.60;99.90;;;;;;5011563;28;20390;-66
2022/03/31 04:27:25;;;;;;;13.20;4.20;;;3.60;99.90;;;;;;5012872;28;20034;-66
2022/03/31 04:29:51;;;;;;;12.13;3.85;;;3.60;99.90;;;;;;5012501;28;20029;-66
2022/03/31 04:32:16;;;;;;;13.55;3.38;;;3.70;99.90;;;;;;5013717;28;20040;-67
2022/03/31 04:34:42;;;;;;;12.60;3.50;;;3.70;99.90;;;;;;4999883;28;20536;-66
2022/03/31 04:37:08;;;;;;;9.02;2.90;;;3.70;99.90;;;;;;4994385;28;20390;-66
2022/03/31 04:39:33;;;;;;;8.82;2.80;;;3.80;99.90;;;;;;4993701;28;20026;-66
2022/03/31 04:41:59;;;;;;;10.02;2.88;;;3.80;99.90;;;;;;4993970;28;20026;-67
2022/03/31 04:44:25;;;;;;;9.25;2.55;;;3.80;99.90;;;;;;5009176;28;20065;-65
2022/03/31 04:46:50;;;;;;;11.98;3.40;;;3.80;99.90;;;;;;5000857;28;20157;-65
2022/03/31 04:49:16;;;;;;;9.35;3.10;;;3.90;99.90;;;;;;4994128;28;20027;-65
2022/03/31 04:51:41;;;;;;;12.65;4.57;;;3.90;99.90;;;;;;5027030;28;20061;-65
2022/03/31 04:54:07;;;;;;;9.88;3.53;;;3.90;99.90;;;;;;5013400;28;20469;-67
2022/03/31 04:56:33;;;;;;;9.23;3.13;;;3.90;99.90;;;;;;5013318;28;20401;-64
2022/03/31 04:58:58;;;;;;;8.23;2.95;;;4.00;99.90;;;;;;5013016;28;20038;-67
2022/03/31 05:01:24;;;;;;;8.85;3.20;;;3.90;99.90;;;;;;5013369;28;20025;-64
2022/03/31 05:03:54;;;;;;;8.77;3.20;;;4.00;99.90;;;;;;5012688;28;20103;-66
2022/03/31 05:06:20;;;;;;;8.35;3.28;;;4.00;99.90;;;;;;5013513;28;20446;-65
2022/03/31 05:08:45;;;;;;;7.88;3.15;;;4.00;99.90;;;;;;5013023;28;20036;-67
2022/03/31 05:11:11;;;;;;;11.15;4.45;;;4.00;99.90;;;;;;5011579;28;20029;-65
2022/03/31 05:13:36;;;;;;;6.97;2.90;;;4.00;99.90;;;;;;5013179;28;20383;-66
2022/03/31 05:16:02;;;;;;;5.80;2.95;;;4.00;99.90;;;;;;5013481;28;20026;-66
2022/03/31 05:18:28;;;;;;;10.10;3.90;;;4.00;99.90;;;;;;5012361;28;20038;-66
2022/03/31 05:20:53;;;;;;;7.88;2.75;;;4.00;99.90;;;;;;5013196;28;20041;-66
2022/03/31 05:23:19;;;;;;;18.65;7.93;;;3.90;99.90;;;;;;5025378;28;20025;-66
2022/03/31 05:25:45;;;;;;;24.20;9.52;;;3.90;99.90;;;;;;5032689;28;20050;-65
2022/03/31 05:28:11;;;;;;;18.23;6.75;;;3.90;99.90;;;;;;5032809;28;20091;-66
2022/03/31 05:30:37;;;;;;;11.02;3.95;;;3.90;99.90;;;;;;5012113;28;20119;-65
2022/03/31 05:33:04;;;;;;;8.65;3.85;;;3.90;99.90;;;;;;5012312;28;20045;-66
2022/03/31 05:35:30;;;;;;;9.65;3.92;;;3.80;99.90;;;;;;5012409;28;20168;-66
2022/03/31 05:37:56;;;;;;;8.55;3.53;;;3.80;99.90;;;;;;5012263;28;20108;-65
2022/03/31 05:40:22;;;;;;;8.35;3.30;;;3.80;99.90;;;;;;5026773;28;20026;-65
2022/03/31 05:42:48;;;;;;;14.27;4.22;;;3.70;99.90;;;;;;5012025;28;20041;-65
2022/03/31 05:45:14;;;;;;;12.38;3.90;;;3.70;99.90;;;;;;5010844;28;20034;-65
2022/03/31 05:47:42;;;;;;;5.85;2.80;;;3.70;99.90;;;;;;5010137;28;20302;-65
2022/03/31 05:50:08;;;;;;;10.50;3.03;;;3.70;99.90;;;;;;5011873;28;20030;-65
2022/03/31 05:52:42;;;;;;;10.40;3.97;;;3.70;99.90;;;;;;5011650;28;20120;-65
2022/03/31 05:55:13;;;;;;;14.05;5.32;;;3.70;99.90;;;;;;5010989;28;20022;-65
2022/03/31 05:57:39;;;;;;;16.88;6.50;;;3.80;99.90;;;;;;5012367;28;20026;-65
2022/03/31 06:00:08;;;;;;;12.93;4.80;;;3.80;99.90;;;;;;5011417;28;20041;-67
2022/03/31 06:02:33;;;;;;;21.80;8.43;;;3.80;99.90;;;;;;5011011;28;20095;-66
2022/03/31 06:04:59;;;;;;;11.95;4.55;;;3.80;99.90;;;;;;5013023;28;20471;-70
2022/03/31 06:07:24;;;;;;;11.20;4.50;;;3.80;99.90;;;;;;5011988;28;20030;-67
2022/03/31 06:09:50;;;;;;;13.85;4.38;;;3.80;99.90;;;;;;5011788;28;20088;-67
2022/03/31 06:12:16;;;;;;;15.73;5.53;;;3.80;99.90;;;;;;5012044;28;20498;-66
2022/03/31 06:14:42;;;;;;;19.58;5.90;;;3.80;99.90;;;;;;5011487;28;20030;-66
2022/03/31 06:17:08;;;;;;;10.55;3.40;;;3.90;99.90;;;;;;5011784;28;20037;-66
2022/03/31 06:19:34;;;;;;;7.65;2.80;;;3.90;99.90;;;;;;5011649;28;20181;-66
2022/03/31 06:21:59;;;;;;;5.30;2.72;;;3.90;99.90;;;;;;5011735;28;20522;-66
2022/03/31 06:24:25;;;;;;;7.40;2.58;;;4.00;99.90;;;;;;5011513;28;20470;-66
2022/03/31 06:26:51;;;;;;;8.43;3.20;;;4.10;99.90;;;;;;5014400;28;20061;-66
2022/03/31 06:29:17;;;;;;;5.20;2.42;;;4.10;99.90;;;;;;5015732;28;20056;-67
2022/03/31 06:31:42;;;;;;;10.07;2.65;;;4.10;99.90;;;;;;5015425;28;20030;-66
2022/03/31 06:34:08;;;;;;;7.28;2.80;;;4.20;99.90;;;;;;5015207;28;20080;-66
2022/03/31 06:36:35;;;;;;;4.45;2.28;;;4.20;99.90;;;;;;5015154;28;20042;-67
2022/03/31 06:39:02;;;;;;;7.15;2.88;;;4.20;99.90;;;;;;5014217;28;20124;-66
2022/03/31 06:41:27;;;;;;;8.35;2.80;;;4.20;99.90;;;;;;5015055;28;20057;-66
2022/03/31 06:43:53;;;;;;;3.70;1.90;;;4.20;99.90;;;;;;5014784;28;20034;-66
2022/03/31 06:46:19;;;;;;;6.18;2.53;;;4.20;99.90;;;;;;5014603;28;20033;-66
2022/03/31 06:48:47;;;;;;;4.00;2.45;;;4.10;99.90;;;;;;5014521;28;20022;-66
2022/03/31 06:51:14;;;;;;;4.95;2.25;;;4.00;99.90;;;;;;5014191;28;20025;-67
2022/03/31 06:53:41;;;;;;;6.75;2.00;;;4.10;99.90;;;;;;5013228;28;20046;-67
2022/03/31 06:56:08;;;;;;;4.03;2.30;;;4.00;99.90;;;;;;5015102;28;20034;-66
2022/03/31 06:58:34;;;;;;;4.38;2.08;;;4.00;99.90;;;;;;5015066;28;20057;-66
2022/03/31 07:01:00;;;;;;;6.07;2.65;;;4.00;99.90;;;;;;5013987;28;20478;-66
2022/03/31 07:03:26;;;;;;;4.32;2.13;;;4.00;99.90;;;;;;5014241;28;20037;-67
2022/03/31 07:05:53;;;;;;;5.07;1.98;;;3.90;99.90;;;;;;5015424;28;20542;-66
2022/03/31 07:08:19;;;;;;;5.75;2.78;;;3.90;99.90;;;;;;5014518;28;20034;-66
2022/03/31 07:10:44;;;;;;;5.07;2.28;;;3.80;99.90;;;;;;5015283;28;20163;-67
2022/03/31 07:13:11;;;;;;;6.88;2.22;;;3.80;99.90;;;;;;5012104;28;20133;-66
2022/03/31 07:15:36;;;;;;;10.55;2.65;;;3.80;99.90;;;;;;5014324;28;20045;-66
2022/03/31 07:18:03;;;;;;;6.55;2.30;;;3.90;99.90;;;;;;5013980;28;20034;-66
2022/03/31 07:20:33;;;;;;;4.07;2.38;;;4.00;99.90;;;;;;5013566;28;20390;-66
2022/03/31 07:22:59;;;;;;;5.75;2.40;;;4.20;99.90;;;;;;5014152;28;20084;-67
2022/03/31 07:25:25;;;;;;;9.10;3.10;;;4.30;99.90;;;;;;5013831;28;20453;-66
2022/03/31 07:27:51;;;;;;;4.85;2.03;;;4.40;99.90;;;;;;5014699;28;20135;-66
2022/03/31 07:30:18;;;;;;;7.43;3.70;;;4.60;99.90;;;;;;5014343;28;20058;-66
2022/03/31 07:32:58;;;;;;;4.40;2.20;;;4.70;99.90;;;;;;5014032;28;20073;-66
2022/03/31 07:35:27;;;;;;;4.60;2.42;;;4.70;99.90;;;;;;5014493;28;20034;-66
2022/03/31 07:37:54;;;;;;;5.57;2.03;;;4.80;99.90;;;;;;5011244;28;20030;-64
2022/03/31 07:40:21;;;;;;;6.78;2.47;;;4.90;99.90;;;;;;5011714;28;20113;-65
2022/03/31 07:42:47;;;;;;;6.95;2.70;;;5.00;99.90;;;;;;5013308;28;20703;-65
2022/03/31 07:45:13;;;;;;;8.15;2.70;;;5.10;99.90;;;;;;5012786;28;20116;-65
2022/03/31 07:47:39;;;;;;;5.57;3.10;;;5.40;99.90;;;;;;5010945;28;20398;-65
2022/03/31 07:50:09;;;;;;;3.70;2.28;;;5.60;99.90;;;;;;5012204;28;20123;-65
2022/03/31 07:52:35;;;;;;;8.43;2.67;;;5.70;99.90;;;;;;5013069;28;20470;-65
2022/03/31 07:55:01;;;;;;;4.50;2.20;;;5.80;99.90;;;;;;5013689;28;20022;-65
2022/03/31 07:57:27;;;;;;;5.50;2.63;;;5.80;99.90;;;;;;5013337;28;20022;-65
2022/03/31 07:59:52;;;;;;;5.03;2.40;;;5.90;99.90;;;;;;5013054;28;20069;-65
2022/03/31 08:02:18;;;;;;;8.45;3.17;;;5.80;99.90;;;;;;5011389;28;20390;-64
2022/03/31 08:04:43;;;;;;;6.88;3.33;;;5.70;99.90;;;;;;5012081;28;20029;-65
2022/03/31 08:07:09;;;;;;;5.63;2.53;;;5.70;99.90;;;;;;5011571;28;20232;-65
2022/03/31 08:09:34;;;;;;;3.92;1.85;;;5.70;99.90;;;;;;5013435;28;20034;-65
2022/03/31 08:12:00;;;;;;;6.82;2.85;;;5.60;99.90;;;;;;5012696;28;20046;-65
2022/03/31 08:14:25;;;;;;;5.38;1.98;;;5.60;99.90;;;;;;5013101;28;20118;-65
2022/03/31 08:16:52;;;;;;;4.88;2.65;;;5.50;99.90;;;;;;5012680;28;20112;-65
2022/03/31 08:19:18;;;;;;;8.82;3.15;;;5.50;99.90;;;;;;5013366;28;20034;-65
2022/03/31 08:21:46;;;;;;;4.22;2.75;;;5.60;99.90;;;;;;5012321;28;20488;-65
2022/03/31 08:24:13;;;;;;;3.55;2.08;;;5.80;99.90;;;;;;5013044;28;20501;-65
2022/03/31 08:26:40;;;;;;;4.20;2.13;;;6.00;99.90;;;;;;5013594;28;20045;-65
2022/03/31 08:29:07;;;;;;;3.83;1.85;;;6.20;99.90;;;;;;5013457;28;20466;-65
2022/03/31 08:31:34;;;;;;;1.60;1.45;;;6.40;99.90;;;;;;5013501;28;20174;-66
2022/03/31 08:34:00;;;;;;;3.75;1.67;;;6.50;99.90;;;;;;5013145;28;20121;-66
2022/03/31 08:36:26;;;;;;;2.97;1.77;;;6.50;99.90;;;;;;5011948;28;20087;-65
2022/03/31 08:38:52;;;;;;;1.65;1.40;;;6.60;99.90;;;;;;5013066;28;20378;-65
2022/03/31 08:41:19;;;;;;;2.08;1.70;;;6.70;99.90;;;;;;5012666;28;20029;-65
2022/03/31 08:43:45;;;;;;;3.80;2.05;;;6.70;99.90;;;;;;5013114;28;20111;-64
2022/03/31 08:46:10;;;;;;;2.03;1.55;;;6.80;99.90;;;;;;5013170;28;20076;-66
2022/03/31 08:48:39;;;;;;;5.85;3.15;;;6.90;99.90;;;;;;5012075;28;20076;-66
2022/03/31 08:51:05;;;;;;;4.03;1.95;;;7.10;99.90;;;;;;5012415;28;20111;-65
2022/03/31 08:53:32;;;;;;;11.65;3.83;;;7.10;99.90;;;;;;5013285;28;20049;-66
2022/03/31 08:55:57;;;;;;;7.32;2.70;;;7.10;99.90;;;;;;5012756;28;20026;-65
2022/03/31 08:58:23;;;;;;;8.07;3.10;;;7.20;99.90;;;;;;5012897;28;20128;-66
2022/03/31 09:00:49;;;;;;;5.40;3.13;;;7.40;99.90;;;;;;5012115;28;20026;-67
2022/03/31 09:03:16;;;;;;;3.08;1.98;;;7.50;99.90;;;;;;5012137;28;20026;-65
2022/03/31 09:05:49;;;;;;;1.75;1.38;;;7.50;99.90;;;;;;5022504;28;20026;-66
2022/03/31 09:08:16;;;;;;;10.20;4.28;;;7.50;99.90;;;;;;5012804;28;20029;-66
2022/03/31 09:10:48;;;;;;;5.93;2.63;;;7.30;99.90;;;;;;5013043;28;20037;-65
2022/03/31 09:13:21;;;;;;;3.67;2.17;;;7.20;99.90;;;;;;5012779;28;20099;-65
2022/03/31 09:15:58;;;;;;;5.63;2.55;;;7.00;99.90;;;;;;5012204;28;20117;-65
2022/03/31 09:18:26;;;;;;;4.15;2.38;;;7.00;99.90;;;;;;5011868;28;20105;-65
2022/03/31 09:20:54;;;;;;;3.63;1.98;;;7.00;99.90;;;;;;5012903;28;20084;-64
2022/03/31 09:23:25;;;;;;;2.83;2.08;;;6.90;99.90;;;;;;5013016;28;20034;-65
2022/03/31 09:25:51;;;;;;;7.35;2.90;;;6.90;99.90;;;;;;5012615;28;20390;-65
2022/03/31 09:28:23;;;;;;;15.25;4.28;;;6.90;99.90;;;;;;5010566;28;20037;-65
2022/03/31 09:30:50;;;;;;;10.57;3.80;;;6.90;99.90;;;;;;5012248;28;20057;-65
2022/03/31 09:33:30;;;;;;;12.65;4.20;;;7.00;99.90;;;;;;5012198;28;20046;-65
2022/03/31 09:36:13;;;;;;;6.20;3.03;;;7.10;99.90;;;;;;5012390;28;20474;-65
2022/03/31 09:38:44;;;;;;;3.55;2.17;;;7.00;99.90;;;;;;5008242;28;20038;-65
2022/03/31 09:41:37;;;;;;;8.85;3.50;;;6.90;99.90;;;;;;5001626;28;20033;-65
2022/03/31 09:44:09;;;;;;;5.03;2.65;;;6.80;99.90;;;;;;5010616;28;20052;-69
2022/03/31 09:46:39;;;;;;;3.08;2.20;;;6.70;99.90;;;;;;5011245;28;20026;-65
2022/03/31 09:49:19;;;;;;;5.47;2.78;;;6.70;99.90;;;;;;5011152;28;20034;-66
2022/03/31 09:51:48;;;;;;;7.60;3.78;;;6.70;99.90;;;;;;5010705;28;20108;-67
2022/03/31 09:54:15;;;;;;;5.22;2.40;;;7.00;99.90;;;;;;5011608;28;20037;-66
2022/03/31 09:56:41;;;;;;;3.78;2.53;;;7.50;99.90;;;;;;5012161;28;20042;-65
2022/03/31 09:59:11;;;;;;;3.28;2.25;;;8.10;99.90;;;;;;5011784;28;20036;-66
2022/03/31 10:01:38;;;;;;;6.63;3.35;;;8.60;99.90;;;;;;5007538;28;20077;-65
2022/03/31 10:04:09;;;;;;;3.78;2.55;;;9.00;99.90;;;;;;5012855;28;20037;-64
2022/03/31 10:06:37;;;;;;;4.15;2.58;;;9.20;99.90;;;;;;5004996;28;20034;-66
2022/03/31 10:09:07;;;;;;;4.38;2.63;;;9.20;99.90;;;;;;5010282;28;20080;-65
2022/03/31 10:11:37;;;;;;;5.68;2.63;;;9.20;99.90;;;;;;5012857;28;20026;-64
2022/03/31 10:14:25;;;;;;;2.90;2.42;;;9.20;99.90;;;;;;5011193;28;20026;-66
2022/03/31 10:17:00;;;;;;;5.35;2.20;;;9.20;99.90;;;;;;5012327;28;20041;-67
2022/03/31 10:19:37;;;;;;;4.10;2.50;;;9.20;99.90;;;;;;5011492;28;20034;-68
2022/03/31 10:25:07;;;;;;;3.80;2.05;;;9.40;99.90;;;;;;5011269;28;20382;-65
2022/03/31 10:27:35;;;;;;;4.35;2.47;;;9.50;99.90;;;;;;5004737;28;20069;-65
2022/03/31 10:30:22;;;;;;;4.03;2.40;;;9.50;99.90;;;;;;5024493;28;20389;-66
2022/03/31 10:32:57;;;;;;;4.22;3.05;;;9.60;99.90;;;;;;5014353;28;20064;-66
2022/03/31 10:35:34;;;;;;;5.38;3.13;;;9.60;99.90;;;;;;5015967;28;20018;-67
2022/03/31 10:38:13;;;;;;;4.60;2.63;;;9.60;99.90;;;;;;5014570;28;20080;-66
2022/03/31 10:40:44;;;;;;;4.50;2.90;;;9.60;99.90;;;;;;5022967;28;20048;-64
2022/03/31 10:43:28;;;;;;;4.30;2.85;;;9.50;99.90;;;;;;5013166;28;20023;-65
2022/03/31 10:45:54;;;;;;;6.05;2.72;;;9.50;99.90;;;;;;4996012;28;20417;-66
2022/03/31 10:48:25;;;;;;;3.40;2.15;;;9.30;99.90;;;;;;5012243;28;20049;-67
2022/03/31 10:51:33;;;;;;;4.43;2.70;;;9.10;99.90;;;;;;5011018;28;20049;-67
2022/03/31 10:54:00;;;;;;;5.40;2.90;;;9.20;99.90;;;;;;5027293;28;20440;-65
2022/03/31 10:56:28;;;;;;;3.90;2.67;;;9.20;99.90;;;;;;5013681;28;20454;-67
2022/03/31 10:58:56;;;;;;;5.07;2.88;;;9.40;99.90;;;;;;5009175;28;20072;-68
2022/03/31 11:01:26;;;;;;;3.15;2.13;;;9.60;99.90;;;;;;5009492;28;20036;-66
2022/03/31 11:04:09;;;;;;;4.97;2.95;;;9.80;99.90;;;;;;5013459;28;20034;-66
2022/03/31 11:06:47;;;;;;;;;;;9.90;99.90;;;;;;5023824;28;20474;-66
2022/03/31 11:09:26;;;;;;;4.70;2.65;;;9.70;99.90;;;;;;5010691;28;20428;-67
2022/03/31 11:11:52;;;;;;;7.13;3.53;;;9.50;99.90;;;;;;5013180;28;20053;-68
2022/03/31 11:14:19;;;;;;;3.97;2.58;;;9.40;99.90;;;;;;5011106;28;20058;-65
2022/03/31 11:16:45;;;;;;;3.30;2.40;;;9.30;99.90;;;;;;5013530;28;20040;-65
2022/03/31 11:19:12;;;;;;;6.07;3.70;;;9.30;99.90;;;;;;5013198;28;20040;-67
2022/03/31 11:21:40;;;;;;;5.45;3.17;;;9.10;99.90;;;;;;5022738;28;20025;-64
2022/03/31 11:24:07;;;;;;;5.60;2.90;;;9.00;99.90;;;;;;5016760;28;20026;-66
2022/03/31 11:26:34;;;;;;;9.90;4.13;;;8.90;99.90;;;;;;5015086;28;20049;-65
2022/03/31 11:29:01;;;;;;;6.65;3.72;;;8.80;99.90;;;;;;5014833;28;20108;-64
2022/03/31 11:31:27;;;;;;;7.28;3.60;;;8.70;99.90;;;;;;5015127;28;20034;-64
2022/03/31 11:33:55;;;;;;;6.68;3.80;;;8.40;99.90;;;;;;5014481;28;20104;-64
2022/03/31 11:36:21;;;;;;;8.02;3.03;;;8.00;99.90;;;;;;5023678;28;20022;-64
2022/03/31 11:38:57;;;;;;;7.07;3.88;;;7.70;99.90;;;;;;5029270;28;20026;-65
2022/03/31 11:41:23;;;;;;;4.88;2.50;;;7.50;99.90;;;;;;5011493;28;20069;-65
2022/03/31 11:43:53;;;;;;;3.85;2.40;;;7.20;99.90;;;;;;5013285;28;20057;-65
2022/03/31 11:46:19;;;;;;;3.53;2.22;;;6.90;99.90;;;;;;5014283;28;20029;-66
2022/03/31 11:48:46;;;;;;;3.45;2.30;;;6.60;99.90;;;;;;5012302;28;20034;-68
2022/03/31 11:51:13;;;;;;;6.07;3.13;;;6.30;99.90;;;;;;5007419;28;20772;-65
2022/03/31 11:53:44;;;;;;;4.35;2.30;;;6.10;99.90;;;;;;4995081;28;20034;-66
2022/03/31 11:56:16;;;;;;;4.13;2.60;;;6.00;99.90;;;;;;5019904;28;20029;-67
2022/03/31 11:58:46;;;;;;;;;;;5.80;99.90;;;;;;5033407;28;20025;-68
2022/03/31 12:01:12;;;;;;;2.45;1.98;;;5.80;99.90;;;;;;5022961;28;19967;-68
2022/03/31 12:03:39;;;;;;;3.15;2.28;;;5.60;99.90;;;;;;5015689;28;20026;-66
2022/03/31 12:06:06;;;;;;;3.28;2.22;;;5.60;99.90;;;;;;5015335;28;20026;-68
2022/03/31 12:08:33;;;;;;;2.40;2.15;;;5.50;99.90;;;;;;5014290;28;20105;-67
2022/03/31 12:11:00;;;;;;;5.10;2.60;;;5.60;99.90;;;;;;5012685;28;20393;-68
2022/03/31 12:13:27;;;;;;;5.93;2.80;;;5.50;99.90;;;;;;5013248;28;20038;-68
2022/03/31 12:16:08;;;;;;;5.72;2.72;;;5.50;99.90;;;;;;5013142;28;20045;-69
2022/03/31 12:18:35;;;;;;;3.95;2.70;;;5.40;99.90;;;;;;5014108;28;20026;-70
2022/03/31 12:21:06;;;;;;;4.85;2.97;;;5.20;99.90;;;;;;5014501;28;20037;-67
2022/03/31 12:23:32;;;;;;;5.28;2.92;;;5.10;99.90;;;;;;5013795;28;20548;-68
2022/03/31 12:25:58;;;;;;;3.28;2.67;;;5.10;99.90;;;;;;5014201;28;20073;-68
2022/03/31 12:28:25;;;;;;;9.88;3.53;;;5.10;99.90;;;;;;5014159;28;20406;-70
2022/03/31 12:30:53;;;;;;;5.80;3.10;;;5.10;99.90;;;;;;5014021;28;20524;-68
2022/03/31 12:33:24;;;;;;;4.00;2.70;;;5.20;99.90;;;;;;5010738;28;20088;-66
2022/03/31 12:35:57;;;;;;;4.78;2.50;;;5.30;99.90;;;;;;4994342;28;20038;-66
2022/03/31 12:38:49;;;;;;;6.13;3.45;;;5.30;99.90;;;;;;5017325;28;20449;-67
2022/03/31 12:41:14;;;;;;;4.23;2.53;;;5.30;99.90;;;;;;5012984;28;20037;-67
2022/03/31 12:43:40;;;;;;;5.43;2.95;;;5.30;99.90;;;;;;5013844;28;20034;-69
2022/03/31 12:46:14;;;;;;;4.15;2.50;;;5.30;99.90;;;;;;5013587;28;20529;-66
2022/03/31 12:48:56;;;;;;;3.85;2.58;;;5.20;99.90;;;;;;5028899;28;20426;-66
2022/03/31 12:51:25;;;;;;;4.30;2.40;;;5.20;99.90;;;;;;4994905;28;20022;-67
2022/03/31 12:53:52;;;;;;;5.10;3.15;;;5.10;99.90;;;;;;5014375;28;20049;-68
2022/03/31 12:56:22;;;;;;;9.40;2.67;;;5.10;99.90;;;;;;5021524;28;20045;-68
2022/03/31 12:58:48;;;;;;;3.45;2.95;;;5.10;99.90;;;;;;5027242;28;20018;-71
2022/03/31 13:01:15;;;;;;;4.03;2.70;;;5.10;99.90;;;;;;5013390;28;20470;-65
2022/03/31 13:03:41;;;;;;;5.95;3.10;;;5.20;99.90;;;;;;5012004;28;20033;-69
2022/03/31 13:06:09;;;;;;;3.47;2.88;;;5.30;99.90;;;;;;5013023;28;20033;-66
2022/03/31 13:08:34;;;;;;;5.15;3.53;;;5.30;99.90;;;;;;5012520;28;20723;-69
2022/03/31 13:11:00;;;;;;;4.72;2.60;;;5.20;99.90;;;;;;5016540;28;20057;-67
2022/03/31 13:13:26;;;;;;;4.18;2.92;;;5.20;99.90;;;;;;5022600;28;20128;-69